createdAt,value
2022-09-25T00:00:54.499Z,11.90
2022-09-25T00:03:23.092Z,11.90
2022-09-25T00:05:49.883Z,11.90
2022-09-25T00:08:18.329Z,11.90
2022-09-25T00:10:48.990Z,11.90
2022-09-25T00:13:18.562Z,11.90
2022-09-25T00:15:49.796Z,12.00
2022-09-25T00:18:16.960Z,11.90
2022-09-25T00:20:43.852Z,11.90
2022-09-25T00:23:10.583Z,11.90
2022-09-25T00:25:37.230Z,11.90
2022-09-25T00:28:04.029Z,11.90
2022-09-25T00:30:30.805Z,11.90
2022-09-25T00:32:57.512Z,11.90
2022-09-25T00:35:24.307Z,12.00
2022-09-25T00:37:51.035Z,12.00
2022-09-25T00:40:19.531Z,11.90
2022-09-25T00:42:46.217Z,12.00
2022-09-25T00:45:18.730Z,12.00
2022-09-25T00:47:48.919Z,12.00
2022-09-25T00:53:08.506Z,12.00
2022-09-25T00:55:38.213Z,12.00
2022-09-25T00:58:06.086Z,12.00
2022-09-25T01:00:33.453Z,12.00
2022-09-25T01:03:01.518Z,12.00
2022-09-25T01:05:31.502Z,12.00
2022-09-25T01:08:01.215Z,12.00
2022-09-25T01:10:28.558Z,12.00
2022-09-25T01:12:57.298Z,11.90
2022-09-25T01:15:30.037Z,12.00
2022-09-25T01:18:01.165Z,12.00
2022-09-25T01:20:28.829Z,12.00
2022-09-25T01:23:17.599Z,12.00
2022-09-25T01:25:56.797Z,12.00
2022-09-25T01:28:56.573Z,12.00
2022-09-25T01:31:47.799Z,12.00
2022-09-25T01:34:22.691Z,11.90
2022-09-25T01:37:03.523Z,11.90
2022-09-25T01:39:35.182Z,11.80
2022-09-25T01:42:11.822Z,11.90
2022-09-25T01:44:46.231Z,11.80
2022-09-25T01:47:20.129Z,11.80
2022-09-25T01:49:50.798Z,11.80
2022-09-25T01:54:52.316Z,11.80
2022-09-25T01:57:26.501Z,11.80
2022-09-25T02:00:08.457Z,11.80
2022-09-25T02:02:43.151Z,11.80
2022-09-25T02:05:18.325Z,11.70
2022-09-25T02:07:50.821Z,11.80
2022-09-25T02:10:23.713Z,11.70
2022-09-25T02:12:55.376Z,11.60
2022-09-25T02:15:28.573Z,11.80
2022-09-25T02:18:23.116Z,11.80
2022-09-25T02:20:59.117Z,11.80
2022-09-25T02:23:31.224Z,11.80
2022-09-25T02:26:09.115Z,11.80
2022-09-25T02:28:36.549Z,11.80
2022-09-25T02:33:35.223Z,11.80
2022-09-25T02:36:04.884Z,11.80
2022-09-25T02:38:33.589Z,11.70
2022-09-25T02:41:21.256Z,11.80
2022-09-25T02:44:22.814Z,11.90
2022-09-25T02:47:08.127Z,12.00
2022-09-25T02:49:55.978Z,12.00
2022-09-25T02:52:27.768Z,12.10
2022-09-25T02:55:02.513Z,12.10
2022-09-25T02:57:38.692Z,12.10
2022-09-25T03:00:08.020Z,12.10
2022-09-25T03:02:36.523Z,12.10
2022-09-25T03:05:06.804Z,12.10
2022-09-25T03:07:53.718Z,12.20
2022-09-25T03:10:21.363Z,12.20
2022-09-25T03:12:48.030Z,12.10
2022-09-25T03:15:14.667Z,12.20
2022-09-25T03:17:41.574Z,12.00
2022-09-25T03:20:09.905Z,12.10
2022-09-25T03:22:37.541Z,12.20
2022-09-25T03:25:05.524Z,12.20
2022-09-25T03:27:32.239Z,12.20
2022-09-25T03:29:58.936Z,12.20
2022-09-25T03:32:25.584Z,12.20
2022-09-25T03:34:52.234Z,12.20
2022-09-25T03:37:18.885Z,12.20
2022-09-25T03:39:46.284Z,12.20
2022-09-25T03:42:14.960Z,12.30
2022-09-25T03:44:42.974Z,12.20
2022-09-25T03:47:09.598Z,12.10
2022-09-25T03:49:36.212Z,12.20
2022-09-25T03:52:03.023Z,12.20
2022-09-25T03:54:30.283Z,12.20
2022-09-25T03:56:57.639Z,12.20
2022-09-25T03:59:24.307Z,12.20
2022-09-25T04:01:50.976Z,12.20
2022-09-25T04:04:17.662Z,12.30
2022-09-25T04:06:44.287Z,12.30
2022-09-25T04:09:10.991Z,12.30
2022-09-25T04:11:37.970Z,12.30
2022-09-25T04:14:05.200Z,12.20
2022-09-25T04:16:32.057Z,12.20
2022-09-25T04:18:58.802Z,12.30
2022-09-25T04:21:25.556Z,12.20
2022-09-25T04:24:12.188Z,12.20
2022-09-25T04:26:38.916Z,12.20
2022-09-25T04:29:05.742Z,12.10
2022-09-25T04:33:59.854Z,12.20
2022-09-25T04:36:26.701Z,12.20
2022-09-25T04:38:53.435Z,12.20
2022-09-25T04:41:20.295Z,12.30
2022-09-25T04:43:47.640Z,12.30
2022-09-25T04:48:48.354Z,12.30
2022-09-25T04:51:15.032Z,12.30
2022-09-25T04:53:41.737Z,12.20
2022-09-25T04:56:14.744Z,12.30
2022-09-25T04:58:47.692Z,12.30
2022-09-25T05:01:15.925Z,12.30
2022-09-25T05:03:42.957Z,12.30
2022-09-25T05:06:09.776Z,12.30
2022-09-25T05:08:36.422Z,12.30
2022-09-25T05:11:03.814Z,12.30
2022-09-25T05:13:30.567Z,12.30
2022-09-25T05:15:57.991Z,12.20
2022-09-25T05:18:24.908Z,12.20
2022-09-25T05:20:53.457Z,12.20
2022-09-25T05:23:20.885Z,12.30
2022-09-25T05:25:58.254Z,12.20
2022-09-25T05:28:25.031Z,12.20
2022-09-25T05:30:51.928Z,12.20
2022-09-25T05:33:19.039Z,12.30
2022-09-25T05:35:45.926Z,12.30
2022-09-25T05:38:12.628Z,12.20
2022-09-25T05:40:39.540Z,12.20
2022-09-25T05:43:06.828Z,12.20
2022-09-25T05:48:03.460Z,12.30
2022-09-25T05:50:32.266Z,12.30
2022-09-25T05:55:27.507Z,12.30
2022-09-25T05:57:54.261Z,12.30
2022-09-25T06:00:20.986Z,12.40
2022-09-25T06:02:52.514Z,12.40
2022-09-25T06:05:19.884Z,12.40
2022-09-25T06:07:52.842Z,12.40
2022-09-25T06:10:19.670Z,12.40
2022-09-25T06:12:46.296Z,12.50
2022-09-25T06:15:12.957Z,12.50
2022-09-25T06:17:39.619Z,12.60
2022-09-25T06:20:08.041Z,12.70
2022-09-25T06:22:36.565Z,12.70
2022-09-25T06:25:04.517Z,12.80
2022-09-25T06:29:58.222Z,12.80
2022-09-25T06:32:24.905Z,12.70
2022-09-25T06:34:51.590Z,12.80
2022-09-25T06:37:18.216Z,12.80
2022-09-25T06:39:44.857Z,12.80
2022-09-25T06:44:38.704Z,12.80
2022-09-25T06:49:32.479Z,12.80
2022-09-25T06:51:59.143Z,12.80
2022-09-25T06:54:25.865Z,12.90
2022-09-25T06:56:52.575Z,12.80
2022-09-25T06:59:19.196Z,12.90
2022-09-25T07:04:13.472Z,13.00
2022-09-25T07:09:07.292Z,13.20
2022-09-25T07:11:33.972Z,13.30
2022-09-25T07:16:30.014Z,13.30
2022-09-25T07:19:00.275Z,13.30
2022-09-25T07:23:58.204Z,13.40
2022-09-25T07:26:27.382Z,13.50
2022-09-25T07:28:57.858Z,13.40
2022-09-25T07:31:28.718Z,13.50
2022-09-25T07:36:23.731Z,13.70
2022-09-25T07:38:51.490Z,13.70
2022-09-25T07:41:19.763Z,13.80
2022-09-25T07:46:13.685Z,14.20
2022-09-25T07:48:40.455Z,14.30
2022-09-25T07:51:09.914Z,14.50
2022-09-25T07:53:36.686Z,14.60
2022-09-25T07:56:06.864Z,14.90
2022-09-25T07:58:35.320Z,14.90
2022-09-25T08:03:31.365Z,15.40
2022-09-25T08:05:59.926Z,15.90
2022-09-25T08:08:27.907Z,16.00
2022-09-25T08:11:03.241Z,15.90
2022-09-25T08:13:32.668Z,15.80
2022-09-25T08:16:03.736Z,15.50
2022-09-25T08:18:30.613Z,15.40
2022-09-25T08:21:05.121Z,15.40
2022-09-25T08:23:32.297Z,15.30
2022-09-25T08:25:59.430Z,15.20
2022-09-25T08:28:26.152Z,15.20
2022-09-25T08:30:53.587Z,15.00
2022-09-25T08:33:20.618Z,15.10
2022-09-25T08:35:56.701Z,15.30
2022-09-25T08:38:24.219Z,15.30
2022-09-25T08:40:56.573Z,15.40
2022-09-25T08:43:25.825Z,15.40
2022-09-25T08:46:14.732Z,15.50
2022-09-25T08:49:07.384Z,15.50
2022-09-25T08:51:38.858Z,15.50
2022-09-25T08:54:06.339Z,15.50
2022-09-25T08:56:35.666Z,15.60
2022-09-25T08:59:10.624Z,15.60
2022-09-25T09:04:13.420Z,15.80
2022-09-25T09:06:43.701Z,16.00
2022-09-25T09:09:34.863Z,16.10
2022-09-25T09:12:12.373Z,16.30
2022-09-25T09:14:45.373Z,16.50
2022-09-25T09:17:18.618Z,17.20
2022-09-25T09:19:48.650Z,17.40
2022-09-25T09:22:21.328Z,17.80
2022-09-25T09:25:07.938Z,18.40
2022-09-25T09:27:54.456Z,18.80
2022-09-25T09:30:24.166Z,19.00
2022-09-25T09:33:30.658Z,19.20
2022-09-25T09:36:32.810Z,19.00
2022-09-25T09:39:14.628Z,18.90
2022-09-25T09:42:04.007Z,18.40
2022-09-25T09:44:37.026Z,17.80
2022-09-25T09:47:25.551Z,17.10
2022-09-25T09:50:15.601Z,17.10
2022-09-25T09:52:46.997Z,17.00
2022-09-25T09:55:24.625Z,16.90
2022-09-25T09:57:54.907Z,16.90
2022-09-25T10:00:23.036Z,17.00
2022-09-25T10:05:45.052Z,17.90
2022-09-25T10:08:12.307Z,17.80
2022-09-25T10:10:42.884Z,17.80
2022-09-25T10:13:15.227Z,18.00
2022-09-25T10:15:45.449Z,18.20
2022-09-25T10:18:13.650Z,18.20
2022-09-25T10:20:45.859Z,18.00
2022-09-25T10:23:36.021Z,18.00
2022-09-25T10:26:02.712Z,18.30
2022-09-25T10:28:35.914Z,18.30
2022-09-25T10:31:06.094Z,18.40
2022-09-25T10:33:33.196Z,18.60
2022-09-25T10:36:00.441Z,18.50
2022-09-25T10:41:20.509Z,18.30
2022-09-25T10:43:51.859Z,18.20
2022-09-25T10:46:50.098Z,18.60
2022-09-25T10:49:41.529Z,18.90
2022-09-25T10:52:11.779Z,19.70
2022-09-25T12:33:33.085Z,18.60
2022-09-25T12:38:55.213Z,19.50
2022-09-25T15:07:17.211Z,15.80
2022-09-25T16:36:58.146Z,14.30
2022-09-25T17:34:16.700Z,12.90
2022-09-25T20:18:09.434Z,12.20
2022-09-25T21:34:28.071Z,12.50
2022-09-25T21:51:49.538Z,12.50
